Time;durP1;ratioP1;P1;durP2;ratioP2;P2;SDS_P1;SDS_P2;PMS_P1;PMS_P2;Temp;Humidity;BMP_temperature;BMP_pressure;BME280_temperature;BME280_humidity;BME280_pressure;Samples;Min_cycle;Max_cycle;Signal;HPM_P1;HPM_P2
2022/03/23 00:00:36;;;;;;;;;;;;;;;;;;5038288;28;19909;-71
2022/03/23 00:03:01;;;;;;;;;;;;;;;;;;5055501;28;19909;-71
2022/03/23 00:05:28;;;;;;;;;;;;;;;;;;5056019;28;20353;-70
2022/03/23 00:07:54;;;;;;;;;;;;;;;;;;5038351;28;19905;-71
2022/03/23 00:10:19;;;;;;;;;;;;;;;;;;5055491;28;20007;-71
2022/03/23 00:12:44;;;;;;;;;;;;;;;;;;5055330;28;19963;-71
2022/03/23 00:15:10;;;;;;;;;;;;;;;;;;5055692;28;19916;-70
2022/03/23 00:17:35;;;;;;;;;;;;;;;;;;5038256;28;19931;-71
2022/03/23 00:20:00;;;;;;;;;;;;;;;;;;5056380;28;19912;-71
2022/03/23 00:22:27;;;;;;;;;;;;;;;;;;5055545;28;19908;-72
2022/03/23 00:24:53;;;;;;;;;;;;;;;;;;5055732;28;19905;-71
2022/03/23 00:27:19;;;;;;;;;;;;;;;;;;5055051;28;20265;-71
2022/03/23 00:29:44;;;;;;;;;;;;;;;;;;5037432;28;19908;-72
2022/03/23 00:32:09;;;;;;;;;;;;;;;;;;5054438;28;19917;-71
2022/03/23 00:34:34;;;;;;;;;;;;;;;;;;5037256;28;20290;-71
2022/03/23 00:37:00;;;;;;;;;;;;;;;;;;5037670;28;19916;-71
2022/03/23 00:39:25;;;;;;;;;;;;;;;;;;5046167;28;19995;-71
2022/03/23 00:41:52;;;;;;;;;;;;;;;;;;5017360;28;20321;-72
2022/03/23 00:44:18;;;;;;;;;;;;;;;;;;5034761;28;19909;-72
2022/03/23 00:46:43;;;;;;;;;;;;;;;;;;5017303;28;19913;-71
2022/03/23 00:49:09;;;;;;;;;;;;;;;;;;5034912;28;20318;-70
2022/03/23 00:51:34;;;;;;;;;;;;;;;;;;5017182;28;20378;-70
2022/03/23 00:54:00;;;;;;;;;;;;;;;;;;5017572;28;19957;-71
2022/03/23 00:56:25;;;;;;;;;;;;;;;;;;5034753;28;19999;-71
2022/03/23 00:58:50;;;;;;;;;;;;;;;;;;5016928;28;19909;-70
2022/03/23 01:01:15;;;;;;;;;;;;;;;;;;5017522;28;19951;-70
2022/03/23 01:03:41;;;;;;;;;;;;;;;;;;5034368;28;19909;-70
2022/03/23 01:06:06;;;;;;;;;;;;;;;;;;5016719;28;20258;-72
2022/03/23 01:08:31;;;;;;;;;;;;;;;;;;5034779;28;19909;-70
2022/03/23 01:10:57;;;;;;;;;;;;;;;;;;5016713;28;19957;-70
2022/03/23 01:13:22;;;;;;;;;;;;;;;;;;5010106;28;20250;-71
2022/03/23 01:15:48;;;;;;;;;;;;;;;;;;5036141;28;19909;-69
2022/03/23 01:18:13;;;;;;;;;;;;;;;;;;5054597;28;19913;-71
2022/03/23 01:20:38;;;;;;;;;;;;;;;;;;5037373;28;19905;-70
2022/03/23 01:23:05;;;;;;;;;;;;;;;;;;5054085;28;20151;-70
2022/03/23 01:25:30;;;;;;;;;;;;;;;;;;5036575;28;19909;-70
2022/03/23 01:27:56;;;;;;;;;;;;;;;;;;5036977;28;19911;-71
2022/03/23 01:30:22;;;;;;;;;;;;;;;;;;5054679;28;19916;-70
2022/03/23 01:32:49;;;;;;;;;;;;;;;;;;5036586;28;19912;-70
2022/03/23 01:35:14;;;;;;;;;;;;;;;;;;5043560;28;19920;-70
2022/03/23 01:37:39;;;;;;;;;;;;;;;;;;5033996;28;19906;-70
2022/03/23 01:40:04;;;;;;;;;;;;;;;;;;5032939;28;20269;-70
2022/03/23 01:42:30;;;;;;;;;;;;;;;;;;5033767;28;19909;-70
2022/03/23 01:44:55;;;;;;;;;;;;;;;;;;4999680;28;19916;-70
2022/03/23 01:47:23;;;;;;;;;;;;;;;;;;5033194;28;19917;-70
2022/03/23 01:49:49;;;;;;;;;;;;;;;;;;5033002;28;20404;-70
2022/03/23 01:52:14;;;;;;;;;;;;;;;;;;5033924;28;19909;-70
2022/03/23 01:54:39;;;;;;;;;;;;;;;;;;5032776;28;19916;-70
2022/03/23 01:57:05;;;;;;;;;;;;;;;;;;5030461;28;19917;-71
2022/03/23 01:59:31;;;;;;;;;;;;;;;;;;5033872;28;19909;-71
2022/03/23 02:01:56;;;;;;;;;;;;;;;;;;5000184;28;20316;-71
2022/03/23 02:04:24;;;;;;;;;;;;;;;;;;5015873;28;19963;-71
2022/03/23 02:06:49;;;;;;;;;;;;;;;;;;4999775;28;19952;-72
2022/03/23 02:09:17;;;;;;;;;;;;;;;;;;5000228;28;20250;-70
2022/03/23 02:11:42;;;;;;;;;;;;;;;;;;5015972;28;20012;-72
2022/03/23 02:14:08;;;;;;;;;;;;;;;;;;4999308;28;19913;-71
2022/03/23 02:16:34;;;;;;;;;;;;;;;;;;5016110;28;20241;-70
2022/03/23 02:18:59;;;;;;;;;;;;;;;;;;5016102;28;19920;-70
2022/03/23 02:21:24;;;;;;;;;;;;;;;;;;5016920;28;19913;-70
2022/03/23 02:23:49;;;;;;;;;;;;;;;;;;5034130;28;19917;-71
2022/03/23 02:26:15;;;;;;;;;;;;;;;;;;5032882;28;19912;-70
2022/03/23 02:28:40;;;;;;;;;;;;;;;;;;5053299;28;19909;-71
2022/03/23 02:31:05;;;;;;;;;;;;;;;;;;5053154;28;19917;-70
2022/03/23 02:33:31;;;;;;;;;;;;;;;;;;5019238;28;20391;-71
2022/03/23 02:35:56;;;;;;;;;;;;;;;;;;5043026;28;19909;-71
2022/03/23 02:38:22;;;;;;;;;;;;;;;;;;5033935;28;20011;-71
2022/03/23 02:40:47;;;;;;;;;;;;;;;;;;5033514;28;19909;-71
2022/03/23 02:43:12;;;;;;;;;;;;;;;;;;5033821;28;19909;-70
2022/03/23 02:45:37;;;;;;;;;;;;;;;;;;5037201;28;19909;-71
2022/03/23 02:48:03;;;;;;;;;;;;;;;;;;5019667;28;19916;-71
2022/03/23 02:50:28;;;;;;;;;;;;;;;;;;5035550;28;19913;-71
2022/03/23 03:03:48;;;;;;;;;;;;;;;;;;5039472;28;20301;-71
2022/03/23 03:06:14;;;;;;;;;;;;;;;;;;5056798;28;19917;-71
2022/03/23 03:08:45;;;;;;;;;;;;;;;;;;5056500;28;20354;-71
2022/03/23 03:11:10;;;;;;;;;;;;;;;;;;5056343;28;20406;-71
2022/03/23 03:13:35;;;;;;;;;;;;;;;;;;5056540;28;20007;-71
2022/03/23 03:16:03;;;;;;;;;;;;;;;;;;5034691;28;19948;-70
2022/03/23 03:18:28;;;;;;;;;;;;;;;;;;5036543;28;19913;-69
2022/03/23 03:20:53;;;;;;;;;;;;;;;;;;5036959;28;19913;-70
2022/03/23 03:23:19;;;;;;;;;;;;;;;;;;5036208;28;19915;-69
2022/03/23 03:25:44;;;;;;;;;;;;;;;;;;5053851;28;19912;-71
2022/03/23 03:28:09;;;;;;;;;;;;;;;;;;5056633;28;19996;-71
2022/03/23 03:30:35;;;;;;;;;;;;;;;;;;5054976;28;20023;-71
2022/03/23 03:36:03;;;;;;;;;;;;;;;;;;5056377;28;19931;-70
2022/03/23 03:38:28;;;;;;;;;;;;;;;;;;5042883;28;20257;-70
2022/03/23 03:40:54;;;;;;;;;;;;;;;;;;5036079;28;19909;-70
2022/03/23 03:43:19;;;;;;;;;;;;;;;;;;5035974;28;19956;-70
2022/03/23 03:45:45;;;;;;;;;;;;;;;;;;5036116;28;19909;-70
2022/03/23 03:48:10;;;;;;;;;;;;;;;;;;5036292;28;19909;-70
2022/03/23 03:50:35;;;;;;;;;;;;;;;;;;5035991;28;19920;-70
2022/03/23 03:53:00;;;;;;;;;;;;;;;;;;5018260;28;20007;-70
2022/03/23 03:55:26;;;;;;;;;;;;;;;;;;5035843;28;20377;-70
2022/03/23 03:57:51;;;;;;;;;;;;;;;;;;5035976;28;19916;-70
2022/03/23 04:00:17;;;;;;;;;;;;;;;;;;5018344;28;19913;-70
2022/03/23 04:02:42;;;;;;;;;;;;;;;;;;5035592;28;19909;-70
2022/03/23 04:05:08;;;;;;;;;;;;;;;;;;5032827;28;19905;-69
2022/03/23 04:07:33;;;;;;;;;;;;;;;;;;5054697;28;19908;-70
2022/03/23 04:09:58;;;;;;;;;;;;;;;;;;5055341;28;19913;-70
2022/03/23 04:12:23;;;;;;;;;;;;;;;;;;5055645;28;19920;-70
2022/03/23 04:14:49;;;;;;;;;;;;;;;;;;5055622;28;19976;-70
2022/03/23 04:17:14;;;;;;;;;;;;;;;;;;5055468;28;19920;-70
2022/03/23 04:19:39;;;;;;;;;;;;;;;;;;5056579;28;19920;-70
2022/03/23 04:22:05;;;;;;;;;;;;;;;;;;5054923;28;19916;-70
2022/03/23 04:24:30;;;;;;;;;;;;;;;;;;5055551;28;19909;-70
2022/03/23 04:26:55;;;;;;;;;;;;;;;;;;5037484;28;20337;-70
2022/03/23 04:29:24;;;;;;;;;;;;;;;;;;5055198;28;19909;-70
2022/03/23 04:31:50;;;;;;;;;;;;;;;;;;5037307;28;20261;-70
2022/03/23 04:34:15;;;;;;;;;;;;;;;;;;5037138;28;20357;-70
2022/03/23 04:36:40;;;;;;;;;;;;;;;;;;5054817;28;19905;-70
2022/03/23 04:39:05;;;;;;;;;;;;;;;;;;5055499;28;19908;-70
2022/03/23 04:41:30;;;;;;;;;;;;;;;;;;5054973;28;19905;-70
2022/03/23 04:43:56;;;;;;;;;;;;;;;;;;5020732;28;19959;-70
2022/03/23 04:46:21;;;;;;;;;;;;;;;;;;5037346;28;20003;-70
2022/03/23 04:48:46;;;;;;;;;;;;;;;;;;5020471;28;19986;-70
2022/03/23 04:51:12;;;;;;;;;;;;;;;;;;5054435;28;19912;-70
2022/03/23 04:53:38;;;;;;;;;;;;;;;;;;5054755;28;19919;-70
2022/03/23 04:56:03;;;;;;;;;;;;;;;;;;5034747;28;19909;-70
2022/03/23 04:58:29;;;;;;;;;;;;;;;;;;5034748;28;19999;-70
2022/03/23 05:00:54;;;;;;;;;;;;;;;;;;5034537;28;19909;-71
2022/03/23 05:03:20;;;;;;;;;;;;;;;;;;5034454;28;20436;-71
2022/03/23 05:05:45;;;;;;;;;;;;;;;;;;5017477;28;19944;-71
2022/03/23 05:08:10;;;;;;;;;;;;;;;;;;5034297;28;20028;-70
2022/03/23 05:10:35;;;;;;;;;;;;;;;;;;5034180;28;19935;-70
2022/03/23 05:13:00;;;;;;;;;;;;;;;;;;5014417;28;19948;-70
2022/03/23 05:15:26;;;;;;;;;;;;;;;;;;5034729;28;19905;-70
2022/03/23 05:17:51;;;;;;;;;;;;;;;;;;5034413;28;19916;-71
2022/03/23 05:20:18;;;;;;;;;;;;;;;;;;5034372;28;19920;-70
2022/03/23 05:22:43;;;;;;;;;;;;;;;;;;5034091;28;19909;-70
2022/03/23 05:25:08;;;;;;;;;;;;;;;;;;5032287;28;19928;-70
2022/03/23 05:27:33;;;;;;;;;;;;;;;;;;5034091;28;19982;-70
2022/03/23 05:29:58;;;;;;;;;;;;;;;;;;5016294;28;20346;-70
2022/03/23 05:32:24;;;;;;;;;;;;;;;;;;5033927;28;19924;-70
2022/03/23 05:34:50;;;;;;;;;;;;;;;;;;5033947;28;19963;-72
2022/03/23 05:37:16;;;;;;;;;;;;;;;;;;5033922;28;19909;-72
2022/03/23 05:39:42;;;;;;;;;;;;;;;;;;5034729;28;20268;-72
2022/03/23 05:42:07;;;;;;;;;;;;;;;;;;5016779;28;20350;-71
2022/03/23 05:44:32;;;;;;;;;;;;;;;;;;5016431;28;19913;-71
2022/03/23 05:46:57;;;;;;;;;;;;;;;;;;5047804;28;19915;-71
2022/03/23 05:49:23;;;;;;;;;;;;;;;;;;5053960;28;19908;-71
2022/03/23 05:51:48;;;;;;;;;;;;;;;;;;5053565;28;19909;-70
2022/03/23 05:54:13;;;;;;;;;;;;;;;;;;5053670;28;19974;-71
2022/03/23 05:56:38;;;;;;;;;;;;;;;;;;5035945;28;19927;-71
2022/03/23 05:59:04;;;;;;;;;;;;;;;;;;5035675;28;19909;-70
2022/03/23 06:01:29;;;;;;;;;;;;;;;;;;5035975;28;20400;-71
2022/03/23 06:03:54;;;;;;;;;;;;;;;;;;5036027;28;19920;-70
2022/03/23 06:06:19;;;;;;;;;;;;;;;;;;5053798;28;19905;-70
2022/03/23 06:08:44;;;;;;;;;;;;;;;;;;5031302;28;19956;-71
2022/03/23 06:11:10;;;;;;;;;;;;;;;;;;5033756;28;19970;-71
2022/03/23 06:13:35;;;;;;;;;;;;;;;;;;5032274;28;20268;-71
2022/03/23 06:16:00;;;;;;;;;;;;;;;;;;5033481;28;19909;-71
2022/03/23 06:18:25;;;;;;;;;;;;;;;;;;5033660;28;19913;-71
2022/03/23 06:20:51;;;;;;;;;;;;;;;;;;5016072;28;19909;-71
2022/03/23 06:23:16;;;;;;;;;;;;;;;;;;5034773;28;19916;-71
2022/03/23 06:25:41;;;;;;;;;;;;;;;;;;5031151;28;19928;-71
2022/03/23 06:28:07;;;;;;;;;;;;;;;;;;5033981;28;19960;-72
2022/03/23 06:30:34;;;;;;;;;;;;;;;;;;5035243;28;19913;-71
2022/03/23 06:32:59;;;;;;;;;;;;;;;;;;5056300;28;20258;-71
2022/03/23 06:35:26;;;;;;;;;;;;;;;;;;5056093;28;19920;-72
2022/03/23 06:37:51;;;;;;;;;;;;;;;;;;5039221;28;19947;-70
2022/03/23 06:40:16;;;;;;;;;;;;;;;;;;5057315;28;19971;-71
2022/03/23 06:42:41;;;;;;;;;;;;;;;;;;5057212;28;20344;-71
2022/03/23 06:45:07;;;;;;;;;;;;;;;;;;5056829;28;19916;-71
2022/03/23 06:47:32;;;;;;;;;;;;;;;;;;5056809;28;19921;-73
2022/03/23 06:49:57;;;;;;;;;;;;;;;;;;5054820;28;19908;-71
2022/03/23 06:52:22;;;;;;;;;;;;;;;;;;5039108;28;19916;-74
2022/03/23 06:54:48;;;;;;;;;;;;;;;;;;5057275;28;19931;-71
2022/03/23 06:57:13;;;;;;;;;;;;;;;;;;5039168;28;20222;-72
2022/03/23 06:59:39;;;;;;;;;;;;;;;;;;5020284;28;20292;-72
2022/03/23 07:02:05;;;;;;;;;;;;;;;;;;5019016;28;19984;-72
2022/03/23 07:04:30;;;;;;;;;;;;;;;;;;5036905;28;19955;-74
2022/03/23 07:06:55;;;;;;;;;;;;;;;;;;5019192;28;19913;-60
2022/03/23 07:09:33;;;;;;;;;;;;;;;;;;5037174;28;19909;-60
2022/03/23 07:11:58;;;;;;;;;;;;;;;;;;5036649;28;20003;-61
2022/03/23 07:14:23;;;;;;;;;;;;;;;;;;5018750;28;19956;-60
2022/03/23 07:16:48;;;;;;;;;;;;;;;;;;5036952;28;19913;-69
2022/03/23 07:19:14;;;;;;;;;;;;;;;;;;5057261;28;20335;-70
2022/03/23 07:21:39;;;;;;;;;;;;;;;;;;5056840;28;19909;-69
2022/03/23 07:24:04;;;;;;;;;;;;;;;;;;5056532;28;19913;-70
2022/03/23 07:26:29;;;;;;;;;;;;;;;;;;5056461;28;19931;-70
2022/03/23 07:28:56;;;;;;;;;;;;;;;;;;5056452;28;19908;-69
2022/03/23 07:31:21;;;;;;;;;;;;;;;;;;5056321;28;19913;-69
2022/03/23 07:33:46;;;;;;;;;;;;;;;;;;5039062;28;20000;-68
2022/03/23 07:36:12;;;;;;;;;;;;;;;;;;5056530;28;19916;-68
2022/03/23 07:38:37;;;;;;;;;;;;;;;;;;5056080;28;20272;-68
2022/03/23 07:41:02;;;;;;;;;;;;;;;;;;5037473;28;19931;-69
2022/03/23 07:43:27;;;;;;;;;;;;;;;;;;5056535;28;19956;-67
2022/03/23 07:45:53;;;;;;;;;;;;;;;;;;5056785;28;19908;-69
2022/03/23 07:48:20;;;;;;;;;;;;;;;;;;5056532;28;19909;-68
2022/03/23 07:50:45;;;;;;;;;;;;;;;;;;5056145;28;19916;-67
2022/03/23 07:53:10;;;;;;;;;;;;;;;;;;5046356;28;20000;-69
2022/03/23 07:55:36;;;;;;;;;;;;;;;;;;5035955;28;19912;-67
2022/03/23 07:58:01;;;;;;;;;;;;;;;;;;5034633;28;19951;-66
2022/03/23 08:00:26;;;;;;;;;;;;;;;;;;5035085;28;19905;-67
2022/03/23 08:02:51;;;;;;;;;;;;;;;;;;5001926;28;20004;-67
2022/03/23 08:05:17;;;;;;;;;;;;;;;;;;5017911;28;19955;-67
2022/03/23 08:07:42;;;;;;;;;;;;;;;;;;5035531;28;19909;-69
2022/03/23 08:10:07;;;;;;;;;;;;;;;;;;5048106;28;20376;-67
2022/03/23 08:12:32;;;;;;;;;;;;;;;;;;5055713;28;20333;-67
2022/03/23 08:14:57;;;;;;;;;;;;;;;;;;5053245;28;19909;-67
2022/03/23 08:17:23;;;;;;;;;;;;;;;;;;5055365;28;19916;-68
2022/03/23 08:20:32;;;;;;;;;;;;;;;;;;5056725;28;20329;-66
2022/03/23 08:22:33;;;;;;;;;;;;;;;;;;5056275;28;19986;-67
2022/03/23 08:24:58;;;;;;;;;;;;;;;;;;5040465;28;20351;-68
2022/03/23 08:27:24;;;;;;;;;;;;;;;;;;5037834;28;19909;-66
2022/03/23 08:29:49;;;;;;;;;;;;;;;;;;5021187;28;19931;-68
2022/03/23 08:32:15;;;;;;;;;;;;;;;;;;5055010;28;20442;-68
2022/03/23 08:34:40;;;;;;;;;;;;;;;;;;5055286;28;19905;-67
2022/03/23 08:37:05;;;;;;;;;;;;;;;;;;5055004;28;19913;-68
2022/03/23 08:39:30;;;;;;;;;;;;;;;;;;5033649;28;19905;-69
2022/03/23 08:41:55;;;;;;;;;;;;;;;;;;5035232;28;19909;-69
2022/03/23 08:44:21;;;;;;;;;;;;;;;;;;5035767;28;19916;-69
2022/03/23 08:46:47;;;;;;;;;;;;;;;;;;5035104;28;19909;-68
2022/03/23 08:49:12;;;;;;;;;;;;;;;;;;5032941;28;19912;-68
2022/03/23 08:51:37;;;;;;;;;;;;;;;;;;5017469;28;20012;-68
2022/03/23 08:54:03;;;;;;;;;;;;;;;;;;5017334;28;19963;-68
2022/03/23 08:56:29;;;;;;;;;;;;;;;;;;5034908;28;20261;-68
2022/03/23 08:58:54;;;;;;;;;;;;;;;;;;5034634;28;19905;-68
2022/03/23 09:01:19;;;;;;;;;;;;;;;;;;5034798;28;20381;-68
2022/03/23 09:03:44;;;;;;;;;;;;;;;;;;5034874;28;19913;-68
2022/03/23 09:06:10;;;;;;;;;;;;;;;;;;5034996;28;19905;-68
2022/03/23 09:08:35;;;;;;;;;;;;;;;;;;5016751;28;19913;-68
2022/03/23 09:11:00;;;;;;;;;;;;;;;;;;5034240;28;20361;-69
2022/03/23 09:13:25;;;;;;;;;;;;;;;;;;5031193;28;19960;-68
2022/03/23 09:15:50;;;;;;;;;;;;;;;;;;5016850;28;20380;-69
2022/03/23 09:18:16;;;;;;;;;;;;;;;;;;5034912;28;20324;-67
2022/03/23 09:20:41;;;;;;;;;;;;;;;;;;5034689;28;19916;-67
2022/03/23 09:23:08;;;;;;;;;;;;;;;;;;5034359;28;19935;-68
2022/03/23 09:25:33;;;;;;;;;;;;;;;;;;5034779;28;19953;-68
2022/03/23 09:27:59;;;;;;;;;;;;;;;;;;5034447;28;20010;-68
2022/03/23 09:30:24;;;;;;;;;;;;;;;;;;5047990;28;19913;-68
2022/03/23 09:32:50;;;;;;;;;;;;;;;;;;5054069;28;19967;-67
2022/03/23 09:35:15;;;;;;;;;;;;;;;;;;5052884;28;19913;-68
2022/03/23 09:37:50;;;;;;;;;;;;;;;;;;5053431;28;19915;-68
2022/03/23 09:40:15;;;;;;;;;;;;;;;;;;5054009;28;20104;-69
2022/03/23 09:42:40;;;;;;;;;;;;;;;;;;5036392;28;19916;-68
2022/03/23 09:45:06;;;;;;;;;;;;;;;;;;5054548;28;19916;-68
2022/03/23 09:47:31;;;;;;;;;;;;;;;;;;5054210;28;20007;-68
2022/03/23 09:49:56;;;;;;;;;;;;;;;;;;5036431;28;19935;-68
2022/03/23 09:52:21;;;;;;;;;;;;;;;;;;5054100;28;19917;-68
2022/03/23 09:54:47;;;;;;;;;;;;;;;;;;5054377;28;19909;-69
2022/03/23 09:57:12;;;;;;;;;;;;;;;;;;5054091;28;20308;-68
2022/03/23 09:59:37;;;;;;;;;;;;;;;;;;5054318;28;19944;-67
2022/03/23 10:02:02;;;;;;;;;;;;;;;;;;5053685;28;19905;-67
2022/03/23 10:04:27;;;;;;;;;;;;;;;;;;5054721;28;19916;-68
2022/03/23 10:06:53;;;;;;;;;;;;;;;;;;5058311;28;19912;-67
2022/03/23 10:09:18;;;;;;;;;;;;;;;;;;5040280;28;19916;-68
2022/03/23 10:11:43;;;;;;;;;;;;;;;;;;5056987;28;19908;-67
2022/03/23 10:14:08;;;;;;;;;;;;;;;;;;5023682;28;19984;-68
2022/03/23 10:16:34;;;;;;;;;;;;;;;;;;5020808;28;19909;-68
2022/03/23 10:18:59;;;;;;;;;;;;;;;;;;5038156;28;20250;-69
2022/03/23 10:21:24;;;;;;;;;;;;;;;;;;5037784;28;20269;-69
2022/03/23 10:23:50;;;;;;;;;;;;;;;;;;5060258;28;19905;-70
2022/03/23 10:26:15;;;;;;;;;;;;;;;;;;5061227;28;19958;-68
2022/03/23 10:28:40;;;;;;;;;;;;;;;;;;5041251;28;19962;-70
2022/03/23 10:31:05;;;;;;;;;;;;;;;;;;5040168;28;20273;-68
2022/03/23 10:33:31;;;;;;;;;;;;;;;;;;5040062;28;19913;-70
2022/03/23 10:35:56;;;;;;;;;;;;;;;;;;5057560;28;19915;-70
2022/03/23 10:38:21;;;;;;;;;;;;;;;;;;5036361;28;19916;-69
2022/03/23 10:40:46;;;;;;;;;;;;;;;;;;5019657;28;19967;-68
2022/03/23 10:43:11;;;;;;;;;;;;;;;;;;5017653;28;19909;-68
2022/03/23 10:45:37;;;;;;;;;;;;;;;;;;5037234;28;19986;-73
2022/03/23 10:48:02;;;;;;;;;;;;;;;;;;5038155;28;20353;-69
2022/03/23 10:50:27;;;;;;;;;;;;;;;;;;5037019;28;19936;-66
2022/03/23 10:52:52;;;;;;;;;;;;;;;;;;5037484;28;19920;-67
2022/03/23 10:55:19;;;;;;;;;;;;;;;;;;5037523;28;20373;-68
2022/03/23 11:00:47;;;;;;;;;;;;;;;;;;5036787;28;19917;-69
2022/03/23 11:03:12;;;;;;;;;;;;;;;;;;5019291;28;19909;-67
2022/03/23 11:05:37;;;;;;;;;;;;;;;;;;5034948;28;20326;-67
2022/03/23 11:08:03;;;;;;;;;;;;;;;;;;5036764;28;19909;-67
2022/03/23 11:15:56;;;;;;;;;;;;;;;;;;5036657;28;19919;-70
2022/03/23 11:18:21;;;;;;;;;;;;;;;;;;5036533;28;19913;-70
2022/03/23 11:20:46;;;;;;;;;;;;;;;;;;5036552;28;19909;-70
2022/03/23 11:23:12;;;;;;;;;;;;;;;;;;5036064;28;19909;-69
2022/03/23 11:25:37;;;;;;;;;;;;;;;;;;5036491;28;19909;-67
2022/03/23 11:28:03;;;;;;;;;;;;;;;;;;5037021;28;19909;-68
2022/03/23 11:30:28;;;;;;;;;;;;;;;;;;5036610;28;19936;-68
2022/03/23 11:32:53;;;;;;;;;;;;;;;;;;5036878;28;19920;-69
2022/03/23 11:35:18;;;;;;;;;;;;;;;;;;5036662;28;19905;-68
2022/03/23 11:37:43;;;;;;;;;;;;;;;;;;5036375;28;20357;-68
2022/03/23 11:40:09;;;;;;;;;;;;;;;;;;5035268;28;20266;-67
2022/03/23 11:42:34;;;;;;;;;;;;;;;;;;5035222;28;20353;-68
2022/03/23 11:44:59;;;;;;;;;;;;;;;;;;5036117;28;20285;-68
2022/03/23 11:47:25;;;;;;;;;;;;;;;;;;5036412;28;20301;-67
2022/03/23 11:49:50;;;;;;;;;;;;;;;;;;5030572;28;19909;-67
2022/03/23 11:52:15;;;;;;;;;;;;;;;;;;5027650;28;20357;-68
2022/03/23 11:57:25;;;;;;;;;;;;;;;;;;5018397;28;20268;-68
2022/03/23 11:59:50;;;;;;;;;;;;;;;;;;5036228;28;19984;-68
2022/03/23 12:02:15;;;;;;;;;;;;;;;;;;5036082;28;19913;-69
2022/03/23 12:04:41;;;;;;;;;;;;;;;;;;5035816;28;19916;-69
2022/03/23 12:07:09;;;;;;;;;;;;;;;;;;5036019;28;19949;-69
2022/03/23 12:09:34;;;;;;;;;;;;;;;;;;5018141;28;19905;-68
2022/03/23 12:11:59;;;;;;;;;;;;;;;;;;5035873;28;19920;-69
2022/03/23 12:14:24;;;;;;;;;;;;;;;;;;5034749;28;19913;-69
2022/03/23 12:16:49;;;;;;;;;;;;;;;;;;5035899;28;19908;-68
2022/03/23 12:19:15;;;;;;;;;;;;;;;;;;5031089;28;19920;-68
2022/03/23 12:21:40;;;;;;;;;;;;;;;;;;5033669;28;19912;-68
2022/03/23 12:24:05;;;;;;;;;;;;;;;;;;5033690;28;19940;-69
2022/03/23 12:26:31;;;;;;;;;;;;;;;;;;5033790;28;19905;-69
2022/03/23 12:28:56;;;;;;;;;;;;;;;;;;5037746;28;20284;-70
2022/03/23 12:31:21;;;;;;;;;;;;;;;;;;5036375;28;20353;-68
2022/03/23 12:33:47;;;;;;;;;;;;;;;;;;5030549;28;19913;-70
2022/03/23 12:36:12;;;;;;;;;;;;;;;;;;5035918;28;19913;-69
2022/03/23 12:38:37;;;;;;;;;;;;;;;;;;5035134;28;19920;-68
2022/03/23 12:41:02;;;;;;;;;;;;;;;;;;5041854;28;19931;-69
2022/03/23 12:43:27;;;;;;;;;;;;;;;;;;5054895;28;19909;-70
2022/03/23 12:45:53;;;;;;;;;;;;;;;;;;5055108;28;19912;-70
2022/03/23 12:59:14;;;;;;;;;;;;;;;;;;5032527;28;19910;-68
2022/03/23 13:01:40;;;;;;;;;;;;;;;;;;5034926;28;19909;-71
2022/03/23 13:04:05;;;;;;;;;;;;;;;;;;5017273;28;19916;-69
2022/03/23 13:06:31;;;;;;;;;;;;;;;;;;5017207;28;20279;-68
2022/03/23 13:08:56;;;;;;;;;;;;;;;;;;5034734;28;20050;-69
2022/03/23 13:11:21;;;;;;;;;;;;;;;;;;5034351;28;19939;-68
2022/03/23 13:13:50;;;;;;;;;;;;;;;;;;5021434;28;19912;-70
2022/03/23 13:16:15;;;;;;;;;;;;;;;;;;5036748;28;20427;-68
2022/03/23 13:18:40;;;;;;;;;;;;;;;;;;5054632;28;19944;-70
2022/03/23 13:21:05;;;;;;;;;;;;;;;;;;5054001;28;19919;-69
2022/03/23 13:23:31;;;;;;;;;;;;;;;;;;5017282;28;19944;-70
2022/03/23 13:25:56;;;;;;;;;;;;;;;;;;5034025;28;20013;-69
2022/03/23 13:28:22;;;;;;;;;;;;;;;;;;5016860;28;19905;-69
2022/03/23 13:30:47;;;;;;;;;;;;;;;;;;5016400;28;20008;-69
2022/03/23 13:33:14;;;;;;;;;;;;;;;;;;5034884;28;20008;-69
2022/03/23 13:35:40;;;;;;;;;;;;;;;;;;5033982;28;19931;-70
2022/03/23 13:38:07;;;;;;;;;;;;;;;;;;5034315;28;20316;-69
2022/03/23 13:43:19;;;;;;;;;;;;;;;;;;5033850;28;19909;-69
2022/03/23 13:43:20;;;;;;;;;;;;;;;;;;5034485;28;20015;-70
2022/03/23 13:45:45;;;;;;;;;;;;;;;;;;5034271;28;19961;-72
2022/03/23 13:48:10;;;;;;;;;;;;;;;;;;5034297;28;19917;-69
2022/03/23 13:50:35;;;;;;;;;;;;;;;;;;5034270;28;19921;-70
2022/03/23 13:53:01;;;;;;;;;;;;;;;;;;5034476;28;19913;-69
2022/03/23 13:55:26;;;;;;;;;;;;;;;;;;5034243;28;19913;-69
2022/03/23 13:57:51;;;;;;;;;;;;;;;;;;5038342;28;19909;-71
2022/03/23 14:00:17;;;;;;;;;;;;;;;;;;5053695;28;19912;-68
2022/03/23 14:02:43;;;;;;;;;;;;;;;;;;5054276;28;19909;-71
2022/03/23 14:05:08;;;;;;;;;;;;;;;;;;5053938;28;20261;-70
2022/03/23 14:07:33;;;;;;;;;;;;;;;;;;5051896;28;20249;-69
2022/03/23 14:10:00;;;;;;;;;;;;;;;;;;5053606;28;19912;-69
2022/03/23 14:12:25;;;;;;;;;;;;;;;;;;5053998;28;19923;-71
2022/03/23 14:14:50;;;;;;;;;;;;;;;;;;5036619;28;19912;-70
2022/03/23 14:17:17;;;;;;;;;;;;;;;;;;5054518;28;20419;-70
2022/03/23 14:19:42;;;;;;;;;;;;;;;;;;5054264;28;19919;-69
2022/03/23 14:22:08;;;;;;;;;;;;;;;;;;5053930;28;19999;-69
2022/03/23 14:24:34;;;;;;;;;;;;;;;;;;5035990;28;19909;-69
2022/03/23 14:26:59;;;;;;;;;;;;;;;;;;5048620;28;20004;-70
2022/03/23 14:29:25;;;;;;;;;;;;;;;;;;5034659;28;19952;-71
2022/03/23 14:31:50;;;;;;;;;;;;;;;;;;5036210;28;19956;-70
2022/03/23 14:34:16;;;;;;;;;;;;;;;;;;5035704;28;20276;-70
2022/03/23 14:36:41;;;;;;;;;;;;;;;;;;5016157;28;20257;-70
2022/03/23 14:39:06;;;;;;;;;;;;;;;;;;5032343;28;19917;-70
2022/03/23 14:41:33;;;;;;;;;;;;;;;;;;5032545;28;19910;-69
2022/03/23 14:43:59;;;;;;;;;;;;;;;;;;5016687;28;20258;-69
2022/03/23 14:46:24;;;;;;;;;;;;;;;;;;5032191;28;19916;-70
2022/03/23 14:48:50;;;;;;;;;;;;;;;;;;5016736;28;19909;-70
2022/03/23 14:51:16;;;;;;;;;;;;;;;;;;5035468;28;19913;-69
2022/03/23 14:53:41;;;;;;;;;;;;;;;;;;5020442;28;19915;-70
2022/03/23 14:56:07;;;;;;;;;;;;;;;;;;5037009;28;19996;-69
2022/03/23 14:58:32;;;;;;;;;;;;;;;;;;5046369;28;19915;-70
2022/03/23 15:00:58;;;;;;;;;;;;;;;;;;5057421;28;19944;-70
2022/03/23 15:03:24;;;;;;;;;;;;;;;;;;5057684;28;19920;-69
2022/03/23 15:14:00;;;;;;;;;;;;;;;;;;5057137;28;19999;-69
2022/03/23 15:16:25;;;;;;;;;;;;;;;;;;5056844;28;19937;-70
2022/03/23 15:18:51;;;;;;;;;;;;;;;;;;5056968;28;19996;-70
2022/03/23 15:21:17;;;;;;;;;;;;;;;;;;5039254;28;20008;-68
2022/03/23 15:23:42;;;;;;;;;;;;;;;;;;5023209;28;19909;-69
2022/03/23 15:26:07;;;;;;;;;;;;;;;;;;5038815;28;20348;-70
2022/03/23 15:28:33;;;;;;;;;;;;;;;;;;5039142;28;19912;-70
2022/03/23 15:30:58;;;;;;;;;;;;;;;;;;5056366;28;19909;-71
2022/03/23 15:33:23;;;;;;;;;;;;;;;;;;5056653;28;19916;-69
2022/03/23 15:35:48;;;;;;;;;;;;;;;;;;5056579;28;19909;-71
2022/03/23 15:38:16;;;;;;;;;;;;;;;;;;5039063;28;19992;-70
2022/03/23 15:40:41;;;;;;;;;;;;;;;;;;5022942;28;19960;-69
2022/03/23 15:43:08;;;;;;;;;;;;;;;;;;5056717;28;20298;-71
2022/03/23 15:45:34;;;;;;;;;;;;;;;;;;5036431;28;19915;-69
2022/03/23 15:48:00;;;;;;;;;;;;;;;;;;5038798;28;19916;-69
2022/03/23 15:50:25;;;;;;;;;;;;;;;;;;5055862;28;19909;-71
2022/03/23 15:52:50;;;;;;;;;;;;;;;;;;5038227;28;20362;-71
2022/03/23 15:55:19;;;;;;;;;;;;;;;;;;5053773;28;20009;-70
2022/03/23 15:57:44;;;;;;;;;;;;;;;;;;5056195;28;19995;-71
2022/03/23 16:00:09;;;;;;;;;;;;;;;;;;5056011;28;20046;-68
2022/03/23 16:02:38;;;;;;;;;;;;;;;;;;5037577;28;19908;-69
2022/03/23 16:05:03;;;;;;;;;;;;;;;;;;5056087;28;19908;-70
2022/03/23 16:07:29;;;;;;;;;;;;;;;;;;5056376;28;19909;-69
2022/03/23 16:09:54;;;;;;;;;;;;;;;;;;5055931;28;19909;-69
2022/03/23 16:12:19;;;;;;;;;;;;;;;;;;5038013;28;19915;-71
2022/03/23 16:14:44;;;;;;;;;;;;;;;;;;5055927;28;19912;-70
2022/03/23 16:17:09;;;;;;;;;;;;;;;;;;5038342;28;20283;-70
2022/03/23 16:19:35;;;;;;;;;;;;;;;;;;5056246;28;20337;-70
2022/03/23 16:22:00;;;;;;;;;;;;;;;;;;5056090;28;19915;-69
2022/03/23 16:24:26;;;;;;;;;;;;;;;;;;5054110;28;19909;-71
2022/03/23 16:26:51;;;;;;;;;;;;;;;;;;5055401;28;19974;-71
2022/03/23 16:29:16;;;;;;;;;;;;;;;;;;5037414;28;19913;-70
2022/03/23 16:31:44;;;;;;;;;;;;;;;;;;5055886;28;19920;-71
2022/03/23 16:34:10;;;;;;;;;;;;;;;;;;5055433;28;19919;-71
2022/03/23 16:36:36;;;;;;;;;;;;;;;;;;5055660;28;20017;-71
2022/03/23 16:39:01;;;;;;;;;;;;;;;;;;5055524;28;20390;-68
2022/03/23 16:41:36;;;;;;;;;;;;;;;;;;5055254;28;19919;-72
2022/03/23 16:44:01;;;;;;;;;;;;;;;;;;5034939;28;20292;-69
2022/03/23 16:46:46;;;;;;;;;;;;;;;;;;5053474;28;20434;-69
2022/03/23 16:49:11;;;;;;;;;;;;;;;;;;5054852;28;20354;-70
2022/03/23 16:51:38;;;;;;;;;;;;;;;;;;5047731;28;19919;-70
2022/03/23 16:54:03;;;;;;;;;;;;;;;;;;5017133;28;20008;-70
2022/03/23 16:56:29;;;;;;;;;;;;;;;;;;5034756;28;19959;-70
2022/03/23 16:58:55;;;;;;;;;;;;;;;;;;5017288;28;19916;-69
2022/03/23 17:01:21;;;;;;;;;;;;;;;;;;5017121;28;19905;-70
2022/03/23 17:14:42;;;;;;;;;;;;;;;;;;5034278;28;20000;-70
2022/03/23 17:17:08;;;;;;;;;;;;;;;;;;5034471;28;20295;-70
2022/03/23 17:19:36;;;;;;;;;;;;;;;;;;5034062;28;19913;-70
2022/03/23 17:22:01;;;;;;;;;;;;;;;;;;5034496;28;19916;-71
2022/03/23 17:24:26;;;;;;;;;;;;;;;;;;5016366;28;19913;-71
2022/03/23 17:26:51;;;;;;;;;;;;;;;;;;5034316;28;19909;-70
2022/03/23 17:29:17;;;;;;;;;;;;;;;;;;5034336;28;19912;-71